Time;durP1;ratioP1;P1;durP2;ratioP2;P2;SDS_P1;SDS_P2;PMS_P1;PMS_P2;Temp;Humidity;BMP_temperature;BMP_pressure;BME280_temperature;BME280_humidity;BME280_pressure;Samples;Min_cycle;Max_cycle;Signal;HPM_P1;HPM_P2
2023/11/22 00:01:34;;;;;;;23.50;10.48;;;;;;;3.61;100.00;102939.41;5051074;28;20036;-82
2023/11/22 00:04:00;;;;;;;19.40;10.35;;;;;;;3.59;100.00;102936.81;5050883;28;20039;-81
2023/11/22 00:06:27;;;;;;;19.80;10.15;;;;;;;3.57;100.00;102936.00;5051942;28;20384;-82
2023/11/22 00:08:52;;;;;;;20.30;10.73;;;;;;;3.57;100.00;102933.38;5051862;28;20037;-82
2023/11/22 00:11:18;;;;;;;20.15;10.35;;;;;;;3.57;100.00;102935.13;5033922;28;20087;-82
2023/11/22 00:13:43;;;;;;;17.77;9.25;;;;;;;3.56;100.00;102931.63;5051796;28;20029;-82
2023/11/22 00:16:09;;;;;;;19.30;10.30;;;;;;;3.56;100.00;102941.31;5051858;28;20112;-81
2023/11/22 00:18:37;;;;;;;21.08;10.80;;;;;;;3.56;100.00;102942.16;5051978;28;20484;-82
2023/11/22 00:21:03;;;;;;;19.83;10.65;;;;;;;3.55;100.00;102956.22;5051817;28;20048;-82
2023/11/22 00:23:29;;;;;;;19.20;10.15;;;;;;;3.57;100.00;102956.16;5050839;28;20083;-81
2023/11/22 00:25:56;;;;;;;20.38;9.85;;;;;;;3.58;100.00;102961.41;5034229;28;20037;-82
2023/11/22 00:28:22;;;;;;;20.05;10.23;;;;;;;3.63;100.00;102969.19;5050704;28;20041;-81
2023/11/22 00:30:48;;;;;;;19.95;10.10;;;;;;;3.64;100.00;102970.91;5050932;28;20037;-82
2023/11/22 00:33:14;;;;;;;21.67;11.05;;;;;;;3.67;100.00;102971.69;5050332;28;20432;-80
2023/11/22 00:35:39;;;;;;;21.77;11.40;;;;;;;3.71;100.00;102964.56;5052214;28;20029;-81
2023/11/22 00:38:05;;;;;;;22.40;10.80;;;;;;;3.71;100.00;102965.41;5050628;28;20041;-81
2023/11/22 00:40:30;;;;;;;24.20;11.07;;;;;;;3.65;100.00;102976.13;5051869;28;20055;-81
2023/11/22 00:42:56;;;;;;;18.23;9.77;;;;;;;3.58;100.00;102982.44;5051951;28;20120;-81
2023/11/22 00:45:21;;;;;;;24.95;11.23;;;;;;;3.53;100.00;102979.94;5050585;28;20384;-81
2023/11/22 00:47:48;;;;;;;26.55;10.77;;;;;;;3.50;100.00;102977.41;5051424;28;20044;-81
2023/11/22 00:50:13;;;;;;;24.88;11.38;;;;;;;3.48;100.00;102986.25;5051797;28;20108;-81
2023/11/22 00:52:39;;;;;;;20.08;11.07;;;;;;;3.44;100.00;102993.34;5050319;28;20469;-82
2023/11/22 00:55:05;;;;;;;18.73;9.77;;;;;;;3.41;100.00;102984.69;5051267;28;20039;-82
2023/11/22 00:57:30;;;;;;;25.85;10.80;;;;;;;3.39;100.00;102989.09;5051193;28;20493;-82
2023/11/22 00:59:56;;;;;;;21.80;11.43;;;;;;;3.35;100.00;102997.09;5050059;28;20048;-82
2023/11/22 01:02:21;;;;;;;19.30;10.52;;;;;;;3.32;100.00;103007.69;5051176;28;20040;-82
2023/11/22 01:04:46;;;;;;;18.67;9.80;;;;;;;3.26;100.00;103009.63;5051158;28;20473;-82
2023/11/22 01:07:12;;;;;;;24.63;10.70;;;;;;;3.21;100.00;103009.75;5050011;28;20112;-82
2023/11/22 01:09:37;;;;;;;24.38;10.75;;;;;;;3.19;100.00;103001.00;5051616;28;20167;-82
2023/11/22 01:12:03;;;;;;;23.83;10.75;;;;;;;3.19;100.00;103008.91;5050171;28;20047;-82
2023/11/22 01:14:28;;;;;;;25.00;10.63;;;;;;;3.20;100.00;103015.91;5033937;28;20037;-81
2023/11/22 01:16:54;;;;;;;20.70;10.80;;;;;;;3.21;100.00;103016.75;5049392;28;20032;-82
2023/11/22 01:19:19;;;;;;;26.02;11.57;;;;;;;3.21;100.00;103015.00;5033131;28;20347;-81
2023/11/22 01:21:45;;;;;;;21.27;11.43;;;;;;;3.20;100.00;103013.28;5051468;28;20484;-82
2023/11/22 01:24:11;;;;;;;20.85;10.50;;;;;;;3.18;100.00;103020.34;5033330;28;20070;-82
2023/11/22 01:26:36;;;;;;;16.95;10.00;;;;;;;3.12;100.00;103024.00;5050937;28;20037;-82
2023/11/22 01:29:02;;;;;;;17.70;9.85;;;;;;;3.06;100.00;103033.78;5050662;28;20055;-82
2023/11/22 01:31:28;;;;;;;17.17;9.32;;;;;;;2.97;100.00;103030.47;5051083;28;20138;-82
2023/11/22 01:33:54;;;;;;;17.83;9.50;;;;;;;2.96;100.00;103027.88;5049580;28;20033;-82
2023/11/22 01:36:20;;;;;;;22.23;10.43;;;;;;;2.90;100.00;103023.63;5049592;28;20060;-82
2023/11/22 01:38:46;;;;;;;17.63;9.48;;;;;;;2.88;100.00;103021.94;5050804;28;20029;-82
2023/11/22 01:41:13;;;;;;;21.33;10.23;;;;;;;2.85;100.00;103011.47;5049415;28;20045;-82
2023/11/22 01:43:40;;;;;;;20.67;10.73;;;;;;;2.80;100.00;103009.81;5049817;28;20047;-82
2023/11/22 01:46:07;;;;;;;23.45;10.43;;;;;;;2.79;100.00;103017.75;5053443;28;20033;-81
2023/11/22 01:48:32;;;;;;;19.83;10.02;;;;;;;2.74;100.00;103030.16;5054383;28;20029;-82
2023/11/22 01:50:58;;;;;;;19.65;9.93;;;;;;;2.72;100.00;103039.84;5052948;28;20044;-81
2023/11/22 01:53:24;;;;;;;17.55;9.73;;;;;;;2.70;100.00;103033.72;5054785;28;20079;-82
2023/11/22 01:55:50;;;;;;;19.80;9.60;;;;;;;2.67;100.00;103034.66;5054542;28;20071;-82
2023/11/22 01:58:16;;;;;;;21.15;9.85;;;;;;;2.65;100.00;103039.09;5052547;28;20434;-82
2023/11/22 02:00:49;;;;;;;22.15;11.27;;;;;;;2.71;100.00;103031.06;5053079;28;20051;-83
2023/11/22 02:03:14;;;;;;;24.35;11.75;;;;;;;2.77;100.00;103030.94;5054764;28;20112;-81
2023/11/22 02:05:44;;;;;;;22.80;11.23;;;;;;;2.80;100.00;103038.75;5054597;28;20033;-81
2023/11/22 02:08:10;;;;;;;20.80;10.90;;;;;;;2.81;100.00;103029.97;5053314;28;20492;-81
2023/11/22 02:10:39;;;;;;;20.02;10.00;;;;;;;2.80;100.00;103027.38;5053003;28;20059;-81
2023/11/22 02:13:07;;;;;;;19.63;9.93;;;;;;;2.79;100.00;103021.25;5054352;28;20040;-81
2023/11/22 02:15:33;;;;;;;20.80;9.57;;;;;;;2.78;100.00;103018.66;5053175;28;20111;-81
2023/11/22 02:17:58;;;;;;;24.00;11.20;;;;;;;2.81;100.00;103014.19;5053962;28;20037;-81
2023/11/22 02:20:24;;;;;;;18.05;10.30;;;;;;;2.86;100.00;103021.13;5052886;28;20060;-81
2023/11/22 02:22:50;;;;;;;23.50;11.95;;;;;;;2.89;100.00;103015.78;5052581;28;20103;-82
2023/11/22 02:25:16;;;;;;;20.00;10.35;;;;;;;2.90;100.00;103021.00;5054391;28;20128;-81
2023/11/22 02:27:42;;;;;;;23.60;10.88;;;;;;;2.91;100.00;103016.59;5052976;28;20108;-81
2023/11/22 02:30:08;;;;;;;21.33;10.73;;;;;;;2.90;100.00;103009.63;5036384;28;20043;-82
2023/11/22 02:32:33;;;;;;;29.45;12.50;;;;;;;2.92;100.00;103019.19;5053860;28;20083;-81
2023/11/22 02:34:59;;;;;;;23.92;12.57;;;;;;;2.95;100.00;103015.63;5035366;28;20066;-81
2023/11/22 02:37:25;;;;;;;29.88;12.35;;;;;;;2.95;100.00;103007.75;5054032;28;20061;-82
2023/11/22 02:40:19;;;;;;;27.17;12.73;;;;;;;2.92;100.00;103003.41;5051876;28;20089;-82
2023/11/22 02:42:45;;;;;;;19.67;11.23;;;;;;;2.87;100.00;103007.94;5044845;28;20076;-81
2023/11/22 02:45:11;;;;;;;22.38;10.98;;;;;;;2.83;100.00;103014.16;5053531;28;20051;-81
2023/11/22 02:47:36;;;;;;;20.58;11.15;;;;;;;2.77;100.00;103019.56;5052213;28;20029;-81
2023/11/22 02:50:05;;;;;;;23.25;11.18;;;;;;;2.73;100.00;103021.41;5053290;28;20441;-82
2023/11/22 02:52:30;;;;;;;18.58;10.60;;;;;;;2.68;100.00;103018.00;5053310;28;20086;-81
2023/11/22 02:54:56;;;;;;;18.23;10.73;;;;;;;2.63;100.00;103017.25;5051307;28;20041;-82
2023/11/22 02:57:21;;;;;;;19.80;10.10;;;;;;;2.57;100.00;103010.34;5051012;28;20052;-82
2023/11/22 02:59:46;;;;;;;25.73;11.63;;;;;;;2.56;100.00;103010.38;5035182;28;20037;-81
2023/11/22 03:02:12;;;;;;;24.15;11.13;;;;;;;2.53;100.00;103013.09;5053247;28;20510;-81
2023/11/22 03:04:38;;;;;;;17.52;9.80;;;;;;;2.49;100.00;103011.41;5053087;28;20143;-82
2023/11/22 03:07:06;;;;;;;22.88;10.27;;;;;;;2.46;100.00;103007.97;5053117;28;20119;-81
2023/11/22 03:09:31;;;;;;;24.58;12.02;;;;;;;2.45;100.00;103000.13;5052246;28;20402;-81
2023/11/22 03:11:57;;;;;;;22.17;11.15;;;;;;;2.43;100.00;103009.78;5052954;28;20029;-81
2023/11/22 03:14:22;;;;;;;23.35;10.98;;;;;;;2.41;100.00;103009.81;5053307;28;20033;-81
2023/11/22 03:16:48;;;;;;;22.88;11.68;;;;;;;2.38;100.00;103020.38;5052503;28;20036;-80
2023/11/22 03:19:13;;;;;;;22.33;11.60;;;;;;;2.34;100.00;103021.34;5051355;28;20435;-81
2023/11/22 03:21:40;;;;;;;22.27;11.40;;;;;;;2.34;100.00;103025.75;5053041;28;20483;-81
2023/11/22 03:24:08;;;;;;;19.70;10.60;;;;;;;2.32;100.00;103033.66;5053134;28;20492;-81
2023/11/22 03:26:34;;;;;;;20.30;10.73;;;;;;;2.32;100.00;103038.06;5035827;28;20156;-81
2023/11/22 03:29:00;;;;;;;21.42;10.60;;;;;;;2.32;100.00;103041.53;5051448;28;20037;-81
2023/11/22 03:31:26;;;;;;;22.65;10.85;;;;;;;2.34;100.00;103052.03;5052722;28;20102;-81
2023/11/22 03:33:51;;;;;;;27.30;12.85;;;;;;;2.35;100.00;103051.13;5052785;28;20445;-81
2023/11/22 03:36:17;;;;;;;22.65;11.70;;;;;;;2.39;100.00;103063.28;5052467;28;20029;-81
2023/11/22 03:38:43;;;;;;;30.20;12.68;;;;;;;2.42;100.00;103074.63;5052489;28;20033;-81
2023/11/22 03:41:08;;;;;;;31.60;13.00;;;;;;;2.47;100.00;103079.78;5051495;28;20033;-81
2023/11/22 03:43:34;;;;;;;27.73;12.95;;;;;;;2.47;100.00;103091.16;5051461;28;20048;-81
2023/11/22 03:45:59;;;;;;;33.25;13.70;;;;;;;2.47;100.00;103085.88;5051122;28;20350;-81
2023/11/22 03:48:26;;;;;;;26.88;12.95;;;;;;;2.48;100.00;103092.03;5052077;28;20036;-81
2023/11/22 03:50:51;;;;;;;27.85;13.52;;;;;;;2.48;100.00;103092.03;5035208;28;20033;-82
2023/11/22 03:53:17;;;;;;;24.67;12.27;;;;;;;2.45;100.00;103092.09;5052722;28;20025;-81
2023/11/22 03:55:42;;;;;;;29.38;13.13;;;;;;;2.44;100.00;103095.59;5052906;28;20040;-81
2023/11/22 03:58:07;;;;;;;32.90;14.73;;;;;;;2.41;100.00;103091.28;5052572;28;20056;-82
2023/11/22 04:00:33;;;;;;;35.30;13.82;;;;;;;2.40;100.00;103097.41;5050485;28;20033;-82
2023/11/22 04:03:01;;;;;;;31.30;13.52;;;;;;;2.40;100.00;103097.41;5034147;28;20111;-82
2023/11/22 04:05:26;;;;;;;31.35;13.45;;;;;;;2.38;100.00;103104.47;5034484;28;20116;-82
2023/11/22 04:07:52;;;;;;;28.90;14.32;;;;;;;2.37;100.00;103104.50;5050316;28;20147;-82
2023/11/22 04:10:19;;;;;;;28.48;12.63;;;;;;;2.39;100.00;103108.84;5050715;28;20037;-81
2023/11/22 04:12:44;;;;;;;27.17;12.32;;;;;;;2.40;100.00;103107.06;5052357;28;20469;-82
2023/11/22 04:15:12;;;;;;;27.98;12.90;;;;;;;2.37;100.00;103112.38;5051771;28;20120;-82
2023/11/22 04:17:38;;;;;;;26.00;12.40;;;;;;;2.32;100.00;103111.63;5051987;28;20358;-82
2023/11/22 04:20:14;;;;;;;23.88;11.13;;;;;;;2.28;100.00;103113.44;5050708;28;20051;-83
2023/11/22 04:22:47;;;;;;;23.77;12.10;;;;;;;2.24;100.00;103107.38;5050791;28;20043;-82
2023/11/22 04:25:16;;;;;;;24.77;12.20;;;;;;;2.22;100.00;103106.53;5050249;28;20076;-82
2023/11/22 04:27:41;;;;;;;25.92;11.82;;;;;;;2.20;100.00;103110.94;5052097;28;20025;-82
2023/11/22 04:30:08;;;;;;;18.90;11.02;;;;;;;2.20;100.00;103107.47;5050486;28;20445;-82
2023/11/22 04:32:36;;;;;;;25.33;12.20;;;;;;;2.21;100.00;103119.69;5050623;28;20433;-82
2023/11/22 04:35:03;;;;;;;26.67;11.88;;;;;;;2.20;100.00;103116.22;5050013;28;20423;-85
2023/11/22 04:37:31;;;;;;;28.42;12.35;;;;;;;2.24;100.00;103119.63;5051506;28;20048;-82
2023/11/22 04:39:57;;;;;;;25.33;12.48;;;;;;;2.25;100.00;103124.00;5051928;28;20037;-82
2023/11/22 04:42:23;;;;;;;24.83;12.02;;;;;;;2.27;100.00;103117.81;5051319;28;20397;-83
2023/11/22 04:44:48;;;;;;;27.88;12.85;;;;;;;2.28;100.00;103116.06;5050102;28;20053;-81
2023/11/22 04:47:14;;;;;;;27.98;12.73;;;;;;;2.28;100.00;103119.56;5051008;28;20165;-82
2023/11/22 04:49:39;;;;;;;25.63;12.02;;;;;;;2.29;100.00;103120.44;5051597;28;20058;-82
2023/11/22 04:52:05;;;;;;;30.05;13.55;;;;;;;2.31;100.00;103113.38;5033824;28;20029;-81
2023/11/22 04:54:31;;;;;;;29.02;13.20;;;;;;;2.33;100.00;103111.59;5033175;28;20037;-81
2023/11/22 04:56:57;;;;;;;31.77;14.70;;;;;;;2.35;100.00;103111.56;5049524;28;20064;-83
2023/11/22 04:59:22;;;;;;;31.15;13.20;;;;;;;2.37;100.00;103115.88;5050396;28;20083;-82
2023/11/22 05:01:48;;;;;;;34.00;14.85;;;;;;;2.40;100.00;103122.84;5051097;28;20037;-81
2023/11/22 05:04:14;;;;;;;35.25;15.48;;;;;;;2.45;100.00;103123.63;5050746;28;20025;-82
2023/11/22 05:06:39;;;;;;;36.00;16.15;;;;;;;2.50;100.00;103118.28;5051148;28;20060;-82
2023/11/22 05:09:05;;;;;;;39.88;16.15;;;;;;;2.52;100.00;103125.22;5050779;28;20053;-81
2023/11/22 05:11:31;;;;;;;32.38;15.00;;;;;;;2.54;100.00;103133.06;5051008;28;20602;-82
2023/11/22 05:13:57;;;;;;;37.60;15.82;;;;;;;2.55;100.00;103127.78;5050933;28;20060;-82
2023/11/22 05:16:23;;;;;;;29.00;14.18;;;;;;;2.56;100.00;103123.41;5049368;28;20365;-81
2023/11/22 05:18:49;;;;;;;33.33;14.68;;;;;;;2.58;100.00;103121.59;5050606;28;20029;-81
2023/11/22 05:21:15;;;;;;;32.03;14.57;;;;;;;2.57;100.00;103115.50;5051199;28;20032;-81
2023/11/22 05:23:41;;;;;;;33.22;14.85;;;;;;;2.58;100.00;103113.72;5049473;28;20182;-81
2023/11/22 05:26:06;;;;;;;34.95;15.80;;;;;;;2.61;100.00;103106.66;5049421;28;20040;-81
2023/11/22 05:28:31;;;;;;;45.20;17.55;;;;;;;2.63;100.00;103098.72;5050968;28;20387;-82
2023/11/22 05:30:57;;;;;;;41.08;16.48;;;;;;;2.65;100.00;103086.41;5050906;28;20455;-81
2023/11/22 05:33:23;;;;;;;51.65;19.50;;;;;;;2.70;100.00;103083.69;5049420;28;20429;-81
2023/11/22 05:35:49;;;;;;;49.17;19.38;;;;;;;2.72;100.00;103077.50;5049367;28;20040;-81
2023/11/22 05:38:14;;;;;;;44.53;17.90;;;;;;;2.76;100.00;103089.69;5049316;28;20385;-81
2023/11/22 05:40:41;;;;;;;42.58;17.50;;;;;;;2.77;100.00;103093.16;5048870;28;20132;-81
2023/11/22 05:43:08;;;;;;;45.38;18.42;;;;;;;2.75;100.00;103102.88;5032891;28;20044;-81
2023/11/22 05:45:33;;;;;;;47.22;19.20;;;;;;;2.74;100.00;103101.97;5049181;28;20059;-81
2023/11/22 05:47:59;;;;;;;46.45;17.50;;;;;;;2.72;100.00;103106.41;5050615;28;20033;-81
2023/11/22 05:50:24;;;;;;;45.88;17.60;;;;;;;2.71;100.00;103102.03;5050921;28;20040;-81
2023/11/22 05:52:50;;;;;;;46.10;18.38;;;;;;;2.69;100.00;103102.97;5049301;28;20033;-81
2023/11/22 05:55:15;;;;;;;46.85;18.63;;;;;;;2.70;100.00;103104.72;5032545;28;20090;-81
2023/11/22 05:57:41;;;;;;;46.08;18.08;;;;;;;2.68;100.00;103103.88;5048856;28;20045;-81
2023/11/22 06:00:08;;;;;;;44.58;18.13;;;;;;;2.66;100.00;103114.44;5050107;28;20025;-81
2023/11/22 06:02:33;;;;;;;42.85;18.38;;;;;;;2.62;100.00;103120.66;5050499;28;20041;-82
2023/11/22 06:04:59;;;;;;;50.33;18.27;;;;;;;2.61;100.00;103132.94;5032503;28;20097;-81
2023/11/22 06:07:24;;;;;;;47.92;17.73;;;;;;;2.60;100.00;103144.34;5048660;28;20119;-82
2023/11/22 06:09:49;;;;;;;48.05;18.30;;;;;;;2.60;100.00;103144.34;5049014;28;20106;-82
2023/11/22 06:12:15;;;;;;;50.97;19.80;;;;;;;2.59;100.00;103157.50;5050621;28;20124;-82
2023/11/22 06:14:40;;;;;;;50.15;19.92;;;;;;;2.57;100.00;103154.91;5050273;28;20048;-80
2023/11/22 06:17:05;;;;;;;53.85;19.58;;;;;;;2.59;100.00;103168.88;5049012;28;20402;-80
2023/11/22 06:19:31;;;;;;;53.72;19.88;;;;;;;2.57;100.00;103165.44;5050689;28;20404;-80
2023/11/22 06:21:56;;;;;;;51.08;18.70;;;;;;;2.57;100.00;103165.44;5050496;28;20128;-80
2023/11/22 06:24:21;;;;;;;44.78;17.70;;;;;;;2.55;100.00;103150.56;5048770;28;20025;-79
2023/11/22 06:26:47;;;;;;;49.88;18.92;;;;;;;2.56;100.00;103155.81;5050042;28;20037;-81
2023/11/22 06:29:12;;;;;;;48.53;18.67;;;;;;;2.55;100.00;103156.69;5048853;28;20112;-81
2023/11/22 06:31:38;;;;;;;45.53;18.60;;;;;;;2.55;100.00;103145.31;5053409;28;20044;-81
2023/11/22 06:34:03;;;;;;;53.00;18.10;;;;;;;2.54;100.00;103130.44;5054003;28;20342;-83
2023/11/22 06:36:29;;;;;;;46.20;19.27;;;;;;;2.54;100.00;103122.56;5052168;28;20033;-82
2023/11/22 06:38:58;;;;;;;48.10;18.85;;;;;;;2.54;100.00;103123.44;5053658;28;20035;-81
2023/11/22 06:41:23;;;;;;;51.35;18.20;;;;;;;2.54;100.00;103115.56;5053191;28;20033;-83
2023/11/22 06:43:49;;;;;;;50.25;19.10;;;;;;;2.54;100.00;103118.19;5053958;28;20094;-82
2023/11/22 06:46:18;;;;;;;50.22;20.05;;;;;;;2.55;100.00;103124.28;5035845;28;20091;-79
2023/11/22 06:48:44;;;;;;;57.65;20.20;;;;;;;2.56;100.00;103113.75;5053150;28;20055;-80
2023/11/22 06:51:09;;;;;;;55.92;19.33;;;;;;;2.57;100.00;103112.84;5053906;28;20461;-82
2023/11/22 06:53:37;;;;;;;66.07;20.77;;;;;;;2.57;100.00;103118.13;5053112;28;20060;-81
2023/11/22 06:56:03;;;;;;;53.65;20.08;;;;;;;2.57;100.00;103130.41;5051390;28;20094;-81
2023/11/22 06:58:29;;;;;;;52.15;20.02;;;;;;;2.56;100.00;103129.53;5034615;28;20194;-81
2023/11/22 07:00:57;;;;;;;55.53;19.77;;;;;;;2.57;100.00;103135.66;5052665;28;20131;-81
2023/11/22 07:03:23;;;;;;;57.88;20.38;;;;;;;2.56;100.00;103141.81;5052828;28;20029;-83
2023/11/22 07:05:49;;;;;;;57.67;20.65;;;;;;;2.55;100.00;103150.56;5053156;28;20040;-83
2023/11/22 07:08:17;;;;;;;53.15;19.77;;;;;;;2.56;100.00;103152.31;5052577;28;20384;-83
2023/11/22 07:10:42;;;;;;;52.03;20.67;;;;;;;2.57;100.00;103164.56;5052796;28;20067;-83
2023/11/22 07:13:07;;;;;;;55.88;20.55;;;;;;;2.57;100.00;103175.94;5052703;28;20041;-82
2023/11/22 07:15:33;;;;;;;50.65;19.95;;;;;;;2.59;100.00;103183.78;5050977;28;20036;-83
2023/11/22 07:17:59;;;;;;;58.70;21.52;;;;;;;2.60;100.00;103178.50;5052783;28;20032;-83
2023/11/22 07:20:24;;;;;;;51.38;19.50;;;;;;;2.60;100.00;103165.38;5052501;28;20029;-82
2023/11/22 07:22:54;;;;;;;59.97;20.77;;;;;;;2.64;100.00;103158.28;5052329;28;20100;-82
2023/11/22 07:25:26;;;;;;;55.13;20.23;;;;;;;2.63;100.00;103153.94;5052418;28;20091;-83
2023/11/22 07:27:53;;;;;;;52.42;19.02;;;;;;;2.61;100.00;103155.72;5051200;28;20037;-82
2023/11/22 07:30:27;;;;;;;53.28;20.38;;;;;;;2.61;100.00;103156.59;5052776;28;20426;-80
2023/11/22 07:32:53;;;;;;;62.08;22.17;;;;;;;2.58;100.00;103161.91;5052609;28;20035;-82
2023/11/22 07:35:22;;;;;;;59.63;21.10;;;;;;;2.56;100.00;103163.69;5050887;28;20081;-83
2023/11/22 07:37:47;;;;;;;64.20;22.27;;;;;;;2.56;100.00;103173.34;5052137;28;20037;-82
2023/11/22 07:40:14;;;;;;;64.88;21.45;;;;;;;2.56;100.00;103173.34;5050350;28;20029;-82
2023/11/22 07:42:41;;;;;;;54.55;20.02;;;;;;;2.55;100.00;103182.97;5051411;28;20067;-82
2023/11/22 07:45:07;;;;;;;56.30;20.10;;;;;;;2.57;100.00;103191.72;5050715;28;20036;-83
2023/11/22 07:47:33;;;;;;;58.47;21.02;;;;;;;2.57;100.00;103190.84;5051797;28;20036;-83
2023/11/22 07:49:58;;;;;;;54.60;20.30;;;;;;;2.56;100.00;103194.38;5051871;28;20029;-77
2023/11/22 07:52:30;;;;;;;59.58;20.10;;;;;;;2.58;100.00;103192.56;5051703;28;20480;-82
2023/11/22 07:54:59;;;;;;;57.28;21.25;;;;;;;2.60;100.00;103211.81;5052041;28;20090;-83
2023/11/22 07:57:25;;;;;;;63.45;21.15;;;;;;;2.61;100.00;103218.78;5051712;28;20144;-83
2023/11/22 07:59:54;;;;;;;52.28;21.38;;;;;;;2.66;100.00;103216.97;5050052;28;20037;-83
2023/11/22 08:02:20;;;;;;;53.88;20.40;;;;;;;2.71;100.00;103219.50;5050373;28;20348;-83
2023/11/22 08:04:47;;;;;;;54.28;21.15;;;;;;;2.79;100.00;103218.47;5051563;28;20024;-82
2023/11/22 08:07:13;;;;;;;61.55;20.48;;;;;;;2.90;100.00;103220.00;5051660;28;20444;-81
2023/11/22 08:09:38;;;;;;;63.00;22.10;;;;;;;3.00;100.00;103222.41;5051516;28;20029;-81
2023/11/22 08:12:04;;;;;;;55.67;21.55;;;;;;;3.09;100.00;103221.38;5051326;28;20036;-80
2023/11/22 08:14:30;;;;;;;61.00;22.67;;;;;;;3.17;100.00;103219.41;5049790;28;20426;-82
2023/11/22 08:16:56;;;;;;;60.58;22.50;;;;;;;3.21;100.00;103222.88;5051624;28;20116;-81
2023/11/22 08:19:23;;;;;;;53.03;20.33;;;;;;;3.23;100.00;103221.06;5049863;28;20083;-81
2023/11/22 08:21:49;;;;;;;54.78;19.83;;;;;;;3.27;100.00;103225.38;5033568;28;20041;-80
2023/11/22 08:24:14;;;;;;;54.20;20.92;;;;;;;3.33;100.00;103227.00;5051128;28;20039;-80
2023/11/22 08:26:40;;;;;;;56.92;21.40;;;;;;;3.38;100.00;103234.78;5051469;28;20062;-82
2023/11/22 08:29:07;;;;;;;51.38;21.15;;;;;;;3.43;100.00;103239.03;5049848;28;20068;-82
2023/11/22 08:31:34;;;;;;;50.55;20.98;;;;;;;3.50;100.00;103239.78;5050842;28;20432;-82
2023/11/22 08:33:59;;;;;;;46.78;20.45;;;;;;;3.57;100.00;103240.50;5049750;28;20040;-83
2023/11/22 08:36:25;;;;;;;44.90;19.27;;;;;;;3.59;100.00;103234.28;5051242;28;20037;-82
2023/11/22 08:38:50;;;;;;;45.08;19.48;;;;;;;3.61;100.00;103234.25;5050133;28;20033;-82
2023/11/22 08:41:17;;;;;;;44.42;18.85;;;;;;;3.61;100.00;103224.59;5033330;28;20385;-81
2023/11/22 08:43:42;;;;;;;47.03;19.65;;;;;;;3.61;100.00;103213.19;5050272;28;20037;-81
2023/11/22 08:46:08;;;;;;;44.47;19.13;;;;;;;3.60;100.00;103198.28;5051726;28;20040;-81
2023/11/22 08:48:34;;;;;;;42.35;18.67;;;;;;;3.63;100.00;103208.78;5051901;28;20445;-79
2023/11/22 08:51:01;;;;;;;41.10;18.80;;;;;;;3.70;100.00;103212.97;5051342;28;20029;-79
2023/11/22 08:53:26;;;;;;;42.58;19.45;;;;;;;3.73;100.00;103204.16;5051357;28;20173;-82
2023/11/22 08:55:54;;;;;;;43.20;19.45;;;;;;;3.76;100.00;103215.47;5049643;28;20037;-82
2023/11/22 08:58:20;;;;;;;44.85;20.75;;;;;;;3.84;100.00;103223.22;5050667;28;20053;-82
2023/11/22 09:00:45;;;;;;;42.45;18.98;;;;;;;3.86;100.00;103218.75;5051181;28;20033;-81
2023/11/22 09:03:14;;;;;;;38.85;18.45;;;;;;;3.96;100.00;103219.41;5050626;28;20036;-80
2023/11/22 09:05:43;;;;;;;40.80;18.88;;;;;;;4.02;100.00;103216.63;5051446;28;20104;-81
2023/11/22 09:08:15;;;;;;;33.03;17.58;;;;;;;4.03;100.00;103213.06;5050993;28;20094;-82
2023/11/22 09:10:41;;;;;;;35.67;17.88;;;;;;;4.13;100.00;103213.69;5051160;28;20037;-79
2023/11/22 09:13:08;;;;;;;32.78;17.45;;;;;;;4.16;100.00;103211.00;5050818;28;20037;-79
2023/11/22 09:15:35;;;;;;;38.35;17.65;;;;;;;4.20;100.00;103213.50;5050713;28;20056;-79
2023/11/22 09:18:01;;;;;;;38.63;18.55;;;;;;;4.25;100.00;103208.09;5050795;28;20040;-79
2023/11/22 09:20:26;;;;;;;37.63;18.35;;;;;;;4.33;100.00;103210.53;5050914;28;20032;-80
2023/11/22 09:22:54;;;;;;;41.08;18.63;;;;;;;4.39;100.00;103215.69;5050897;28;20112;-79
2023/11/22 09:25:21;;;;;;;35.20;17.00;;;;;;;4.43;100.00;103222.56;5050842;28;20029;-79
2023/11/22 09:27:48;;;;;;;30.27;17.50;;;;;;;4.47;100.00;103221.59;5049565;28;20338;-79
2023/11/22 09:30:32;;;;;;;35.20;17.98;;;;;;;4.46;100.00;103208.44;5050850;28;20029;-79
2023/11/22 09:33:08;;;;;;;33.25;17.55;;;;;;;4.43;100.00;103209.41;5051056;28;20033;-79
2023/11/22 09:35:35;;;;;;;36.67;16.90;;;;;;;4.40;100.00;103204.19;5050848;28;20115;-81
2023/11/22 09:38:02;;;;;;;29.02;16.42;;;;;;;4.38;100.00;103191.06;5049263;28;20088;-80
2023/11/22 09:40:35;;;;;;;31.23;17.52;;;;;;;4.40;100.00;103194.53;5049537;28;20341;-80
2023/11/22 09:43:02;;;;;;;33.03;17.35;;;;;;;4.45;100.00;103191.78;5049614;28;20119;-79
2023/11/22 09:45:29;;;;;;;33.95;17.10;;;;;;;4.46;100.00;103188.22;5050656;28;20059;-79
2023/11/22 09:47:55;;;;;;;34.63;17.63;;;;;;;4.52;100.00;103193.34;5049166;28;20044;-80
2023/11/22 09:50:29;;;;;;;34.00;17.08;;;;;;;4.55;100.00;103182.72;5050491;28;20410;-80
2023/11/22 09:53:00;;;;;;;28.77;17.10;;;;;;;4.59;100.00;103192.25;5050455;28;20110;-80
2023/11/22 09:55:28;;;;;;;29.50;16.92;;;;;;;4.63;100.00;103192.16;5049154;28;20115;-78
2023/11/22 09:57:55;;;;;;;32.05;16.80;;;;;;;4.74;100.00;103177.75;5049991;28;20147;-80
2023/11/22 10:00:24;;;;;;;31.20;16.92;;;;;;;4.82;100.00;103179.31;5050457;28;20080;-81
2023/11/22 10:02:50;;;;;;;29.63;16.98;;;;;;;4.96;100.00;103174.53;5050761;28;20033;-81
2023/11/22 10:05:15;;;;;;;29.15;16.40;;;;;;;5.12;100.00;103177.56;5050005;28;20437;-81
2023/11/22 10:07:41;;;;;;;28.60;17.23;;;;;;;5.27;100.00;103171.81;5035862;28;20039;-80
2023/11/22 10:10:08;;;;;;;31.65;16.13;;;;;;;5.52;100.00;103165.75;5053857;28;20044;-80
2023/11/22 10:12:36;;;;;;;31.63;16.48;;;;;;;5.78;100.00;103158.78;5053880;28;20033;-79
2023/11/22 10:15:15;;;;;;;27.17;16.10;;;;;;;6.05;100.00;103146.44;5054374;28;20299;-81
2023/11/22 10:17:48;;;;;;;29.52;16.25;;;;;;;6.21;100.00;103143.22;5053745;28;20032;-79
2023/11/22 10:20:14;;;;;;;26.63;14.95;;;;;;;6.23;100.00;103146.72;5053850;28;20112;-80
2023/11/22 10:22:45;;;;;;;25.05;16.10;;;;;;;6.21;100.00;103137.94;5036062;28;20111;-79
2023/11/22 10:25:12;;;;;;;23.85;15.15;;;;;;;6.14;100.00;103130.25;5054269;28;20040;-79
2023/11/22 10:27:38;;;;;;;29.23;15.77;;;;;;;6.11;100.00;103108.34;5054247;28;20048;-79
2023/11/22 10:30:04;;;;;;;26.33;16.70;;;;;;;6.11;100.00;103108.34;5053497;28;20033;-80
2023/11/22 10:32:30;;;;;;;26.08;16.25;;;;;;;6.11;100.00;103106.56;5053640;28;20087;-81
2023/11/22 10:34:55;;;;;;;28.33;15.82;;;;;;;6.17;100.00;103113.41;5052161;28;20036;-80
2023/11/22 10:37:24;;;;;;;25.98;15.88;;;;;;;6.25;100.00;103113.97;5053309;28;20368;-79
2023/11/22 10:39:52;;;;;;;24.85;14.93;;;;;;;6.29;100.00;103120.03;5053388;28;20063;-82
2023/11/22 10:42:19;;;;;;;25.65;14.50;;;;;;;6.32;100.00;103117.28;5052997;28;20040;-81
2023/11/22 10:44:48;;;;;;;29.00;15.68;;;;;;;6.46;100.00;103111.47;5053398;28;20032;-81
2023/11/22 10:47:15;;;;;;;25.15;15.40;;;;;;;6.49;100.00;103114.00;5053189;28;20032;-80
2023/11/22 10:49:41;;;;;;;23.45;14.77;;;;;;;6.34;100.00;103118.97;5052679;28;20466;-79
2023/11/22 10:52:12;;;;;;;26.77;14.60;;;;;;;6.32;100.00;103110.22;5051585;28;20064;-80
2023/11/22 10:54:44;;;;;;;27.13;14.80;;;;;;;6.27;100.00;103101.59;5053153;28;20081;-80
2023/11/22 10:57:12;;;;;;;23.98;14.68;;;;;;;6.16;100.00;103101.09;5051097;28;20177;-81
2023/11/22 10:59:40;;;;;;;25.23;14.07;;;;;;;6.18;100.00;103100.13;5052712;28;20067;-81
2023/11/22 11:02:13;;;;;;;27.02;14.85;;;;;;;6.32;100.00;103082.91;5051219;28;20029;-79
2023/11/22 11:05:07;;;;;;;22.92;14.30;;;;;;;6.45;100.00;103086.81;5053027;28;20025;-80
2023/11/22 11:07:41;;;;;;;20.60;13.82;;;;;;;6.55;100.00;103081.19;5047149;28;20490;-80